Terminal Aerodrome Forecast
Issued by NWS

Home | Current Version | Previous Version | Graphics & Text | Print | Product List | Glossary On
Versions: 1 2 3 4 5 6 7 8 9 10 11 12 13 14 15 16 17 18 19 20 21 22
000
FTUS43 KICT 142326
TAFHUT
TAF
KHUT 142326Z 1500/1524 04004KT 6SM -FZRA OVC025
      TEMPO 1500/1503 3SM -FZRA OVC020
     FM150300 05004KT 3SM FZRA OVC015
     FM150600 06004KT 2SM FZRA OVC008
     FM151100 05005KT 1 1/2SM FZRA OVC003
     FM151500 07006KT 3SM -FZRA OVC003
     FM151900 06006KT 3SM -RA OVC005=

USA.gov is the U.S. government's official web portal to all federal, state and local government web resources and services.